Time,TemperatureF,DewpointF,PressureIn,WindDirection,WindDirectionDegrees,WindSpeedMPH,WindSpeedGustMPH,Humidity,HourlyPrecipIn,Conditions,Clouds,dailyrainin,SoftwareType,DateUTC
2013-03-28 00:01:00,31.7,27.7,29.96,WNW,291,7.0,14.0,85,0.00,,---,0.00,VWS V14.01,2013-03-28 04:01:00,
2013-03-28 00:02:00,31.7,27.7,29.96,NW,304,6.0,14.0,85,0.00,,---,0.00,VWS V14.01,2013-03-28 04:02:00,
2013-03-28 00:05:00,31.6,27.6,29.96,NW,310,10.0,15.0,85,0.00,,---,0.00,VWS V14.01,2013-03-28 04:05:00,
2013-03-28 00:10:00,31.6,27.6,29.96,NW,311,8.0,17.0,85,0.00,,---,0.00,VWS V14.01,2013-03-28 04:10:00,
2013-03-28 00:13:00,31.7,27.7,29.96,NW,305,9.0,17.0,85,0.00,,---,0.00,VWS V14.01,2013-03-28 04:13:00,
2013-03-28 00:18:00,31.6,27.6,29.96,WNW,287,10.0,16.0,85,0.00,,---,0.00,VWS V14.01,2013-03-28 04:18:00,
2013-03-28 00:23:00,31.5,27.5,29.96,NW,326,9.0,15.0,85,0.00,,---,0.00,VWS V14.01,2013-03-28 04:23:00,
2013-03-28 00:28:00,31.5,27.8,29.96,NW,311,14.0,18.0,86,0.00,,---,0.00,VWS V14.01,2013-03-28 04:28:00,
2013-03-28 00:33:00,31.6,27.9,29.95,WNW,290,10.0,15.0,86,0.00,,---,0.00,VWS V14.01,2013-03-28 04:33:00,
2013-03-28 00:38:00,31.7,28.0,29.96,NW,307,8.0,18.0,86,0.00,,---,0.00,VWS V14.01,2013-03-28 04:38:00,
2013-03-28 00:43:00,31.7,28.0,29.96,WNW,301,12.0,19.0,86,0.00,,---,0.00,VWS V14.01,2013-03-28 04:43:00,
2013-03-28 00:48:00,31.6,27.9,29.96,WNW,288,9.0,15.0,86,0.00,,---,0.00,VWS V14.01,2013-03-28 04:48:00,
2013-03-28 00:53:00,31.5,27.8,29.96,West,281,12.0,14.0,86,0.00,,---,0.00,VWS V14.01,2013-03-28 04:53:00,
2013-03-28 00:58:00,31.4,27.7,29.95,West,281,17.0,17.0,86,0.00,,---,0.00,VWS V14.01,2013-03-28 04:58:00,
2013-03-28 01:03:00,31.3,27.9,29.95,WNW,290,12.0,20.0,87,0.00,,---,0.00,VWS V14.01,2013-03-28 05:03:00,
2013-03-28 01:08:00,31.2,27.8,29.95,WNW,285,12.0,19.0,87,0.00,,---,0.00,VWS V14.01,2013-03-28 05:08:00,
2013-03-28 01:13:00,31.0,27.6,29.95,NW,314,11.0,16.0,87,0.00,,---,0.00,VWS V14.01,2013-03-28 05:13:00,
2013-03-28 01:18:00,31.0,27.6,29.95,WNW,297,9.0,19.0,87,0.00,,---,0.00,VWS V14.01,2013-03-28 05:18:00,
2013-03-28 01:23:00,30.9,27.8,29.96,NW,311,8.0,14.0,88,0.00,,---,0.00,VWS V14.01,2013-03-28 05:23:00,
2013-03-28 01:28:00,30.9,27.8,29.96,North,1,5.0,14.0,88,0.00,,---,0.00,VWS V14.01,2013-03-28 05:28:00,
2013-03-28 01:34:00,30.8,27.7,29.96,NW,319,8.0,12.0,88,0.00,,---,0.00,VWS V14.01,2013-03-28 05:34:00,
2013-03-28 01:39:00,30.8,27.7,29.96,WNW,300,8.0,14.0,88,0.00,,---,0.00,VWS V14.01,2013-03-28 05:39:00,
2013-03-28 01:44:00,30.7,27.6,29.96,NW,323,4.0,11.0,88,0.00,,---,0.00,VWS V14.01,2013-03-28 05:44:00,
2013-03-28 01:50:00,30.7,27.9,29.96,NW,304,8.0,13.0,89,0.00,,---,0.00,VWS V14.01,2013-03-28 05:50:00,
2013-03-28 01:55:00,30.7,27.9,29.96,WNW,301,5.0,14.0,89,0.00,,---,0.00,VWS V14.01,2013-03-28 05:55:00,
2013-03-28 02:00:00,30.7,27.9,29.96,WNW,291,6.0,16.0,89,0.00,,---,0.00,VWS V14.01,2013-03-28 06:00:00,
2013-03-28 02:05:00,30.7,27.9,29.96,NNW,338,9.0,13.0,89,0.00,,---,0.00,VWS V14.01,2013-03-28 06:05:00,
2013-03-28 02:10:00,30.6,27.8,29.96,NW,309,10.0,13.0,89,0.00,,---,0.00,VWS V14.01,2013-03-28 06:10:00,
2013-03-28 02:15:00,30.6,28.0,29.96,NW,315,7.0,16.0,90,0.00,,---,0.00,VWS V14.01,2013-03-28 06:15:00,
2013-03-28 02:20:00,30.6,28.0,29.96,NW,314,6.0,14.0,90,0.00,,---,0.00,VWS V14.01,2013-03-28 06:20:00,
2013-03-28 02:25:00,30.5,27.9,29.95,NW,308,11.0,16.0,90,0.00,,---,0.00,VWS V14.01,2013-03-28 06:25:00,
2013-03-28 02:30:00,30.5,27.9,29.95,WNW,302,10.0,15.0,90,0.00,,---,0.00,VWS V14.01,2013-03-28 06:30:00,
2013-03-28 02:35:00,30.5,27.9,29.95,NW,324,6.0,14.0,90,0.00,,---,0.00,VWS V14.01,2013-03-28 06:35:00,
2013-03-28 02:40:00,30.5,27.9,29.95,NW,308,9.0,15.0,90,0.00,,---,0.00,VWS V14.01,2013-03-28 06:40:00,
2013-03-28 02:45:00,30.5,27.9,29.95,WNW,295,6.0,11.0,90,0.00,,---,0.00,VWS V14.01,2013-03-28 06:45:00,
2013-03-28 02:50:00,30.5,27.9,29.95,NW,307,10.0,12.0,90,0.00,,---,0.00,VWS V14.01,2013-03-28 06:50:00,
2013-03-28 02:55:00,30.5,27.9,29.95,WNW,298,8.0,12.0,90,0.00,,---,0.00,VWS V14.01,2013-03-28 06:55:00,
2013-03-28 03:00:00,30.4,27.8,29.95,WNW,301,8.0,14.0,90,0.00,,---,0.00,VWS V14.01,2013-03-28 07:00:00,
2013-03-28 03:05:00,30.3,27.7,29.95,WNW,293,9.0,10.0,90,0.00,,---,0.00,VWS V14.01,2013-03-28 07:05:00,
2013-03-28 03:10:00,30.3,27.7,29.95,WNW,292,7.0,11.0,90,0.00,,---,0.00,VWS V14.01,2013-03-28 07:10:00,
2013-03-28 03:15:00,30.2,27.9,29.95,WNW,297,6.0,10.0,91,0.00,,---,0.00,VWS V14.01,2013-03-28 07:15:00,
2013-03-28 03:20:00,30.3,28.0,29.95,NW,308,8.0,13.0,91,0.00,,---,0.00,VWS V14.01,2013-03-28 07:20:00,
2013-03-28 03:25:00,30.4,28.1,29.95,NW,307,6.0,10.0,91,0.00,,---,0.00,VWS V14.01,2013-03-28 07:25:00,
2013-03-28 03:30:00,30.4,28.1,29.95,NW,311,7.0,10.0,91,0.00,,---,0.00,VWS V14.01,2013-03-28 07:30:00,
2013-03-28 03:35:00,30.4,28.1,29.95,NW,305,5.0,9.0,91,0.00,,---,0.00,VWS V14.01,2013-03-28 07:35:00,
2013-03-28 03:41:00,30.4,28.1,29.95,NW,314,6.0,11.0,91,0.00,,---,0.00,VWS V14.01,2013-03-28 07:41:00,
2013-03-28 03:46:00,30.4,28.1,29.95,NW,308,12.0,13.0,91,0.00,,---,0.00,VWS V14.01,2013-03-28 07:46:00,
2013-03-28 03:51:00,30.4,28.1,29.95,NW,307,9.0,16.0,91,0.00,,---,0.00,VWS V14.01,2013-03-28 07:51:00,
2013-03-28 03:56:00,30.4,28.1,29.95,NW,304,6.0,13.0,91,0.00,,---,0.00,VWS V14.01,2013-03-28 07:56:00,
2013-03-28 04:01:00,30.4,28.4,29.95,NNW,342,15.0,17.0,92,0.00,,---,0.00,VWS V14.01,2013-03-28 08:01:00,
2013-03-28 04:06:00,30.4,28.4,29.95,NW,325,5.0,16.0,92,0.00,,---,0.00,VWS V14.01,2013-03-28 08:06:00,
2013-03-28 04:11:00,30.3,28.3,29.95,WNW,294,13.0,17.0,92,0.00,,---,0.00,VWS V14.01,2013-03-28 08:11:00,
2013-03-28 04:16:00,30.3,28.3,29.95,WNW,283,11.0,17.0,92,0.00,,---,0.00,VWS V14.01,2013-03-28 08:16:00,
2013-03-28 04:21:00,30.2,28.2,29.95,WNW,302,13.0,18.0,92,0.00,,---,0.00,VWS V14.01,2013-03-28 08:21:00,
2013-03-28 04:26:00,30.2,28.4,29.95,NW,319,10.0,19.0,93,0.00,,---,0.00,VWS V14.01,2013-03-28 08:26:00,
2013-03-28 04:32:00,30.1,28.3,29.95,NW,306,10.0,14.0,93,0.00,,---,0.00,VWS V14.01,2013-03-28 08:32:00,
2013-03-28 04:37:00,30.1,28.3,29.95,WNW,284,10.0,17.0,93,0.00,,---,0.00,VWS V14.01,2013-03-28 08:37:00,
2013-03-28 04:43:00,30.0,28.2,29.95,WNW,302,8.0,14.0,93,0.00,,---,0.00,VWS V14.01,2013-03-28 08:43:00,
2013-03-28 04:48:00,30.0,28.2,29.95,WNW,300,8.0,15.0,93,0.00,,---,0.00,VWS V14.01,2013-03-28 08:48:00,
2013-03-28 04:53:00,29.9,27.9,29.95,WNW,300,12.0,14.0,92,0.00,,---,0.00,VWS V14.01,2013-03-28 08:53:00,
2013-03-28 04:58:00,29.9,27.9,29.95,NW,305,12.0,16.0,92,0.00,,---,0.00,VWS V14.01,2013-03-28 08:58:00,
2013-03-28 05:03:00,29.9,27.9,29.95,WNW,284,8.0,13.0,92,0.00,,---,0.00,VWS V14.01,2013-03-28 09:03:00,
2013-03-28 05:08:00,29.8,27.8,29.95,WNW,302,10.0,12.0,92,0.00,,---,0.00,VWS V14.01,2013-03-28 09:08:00,
2013-03-28 05:13:00,29.9,27.9,29.95,WNW,297,5.0,13.0,92,0.00,,---,0.00,VWS V14.01,2013-03-28 09:13:00,
2013-03-28 05:18:00,29.8,27.8,29.95,NW,307,6.0,14.0,92,0.00,,---,0.00,VWS V14.01,2013-03-28 09:18:00,
2013-03-28 05:23:00,29.8,27.8,29.95,NW,308,12.0,12.0,92,0.00,,---,0.00,VWS V14.01,2013-03-28 09:23:00,
2013-03-28 05:28:00,29.8,28.0,29.95,NW,316,12.0,13.0,93,0.00,,---,0.00,VWS V14.01,2013-03-28 09:28:00,
2013-03-28 05:33:00,29.8,28.0,29.95,WNW,291,9.0,12.0,93,0.00,,---,0.00,VWS V14.01,2013-03-28 09:33:00,
2013-03-28 05:38:00,29.8,28.0,29.96,WNW,301,8.0,15.0,93,0.00,,---,0.00,VWS V14.01,2013-03-28 09:38:00,
2013-03-28 05:43:00,29.8,28.0,29.96,NW,304,8.0,13.0,93,0.00,,---,0.00,VWS V14.01,2013-03-28 09:43:00,
2013-03-28 05:48:00,29.8,28.0,29.96,NW,305,5.0,15.0,93,0.00,,---,0.00,VWS V14.01,2013-03-28 09:48:00,
2013-03-28 05:53:00,29.8,28.0,29.96,NW,315,3.0,16.0,93,0.00,,---,0.00,VWS V14.01,2013-03-28 09:53:00,
2013-03-28 05:58:00,29.8,28.0,29.96,NW,314,5.0,15.0,93,0.00,,---,0.00,VWS V14.01,2013-03-28 09:58:00,
2013-03-28 06:03:00,29.8,28.0,29.96,WNW,300,11.0,12.0,93,0.00,,---,0.00,VWS V14.01,2013-03-28 10:03:00,
2013-03-28 06:08:00,29.8,28.0,29.96,NW,308,8.0,12.0,93,0.00,,---,0.00,VWS V14.01,2013-03-28 10:08:00,
2013-03-28 06:13:00,29.8,28.0,29.96,WNW,297,9.0,15.0,93,0.00,,---,0.00,VWS V14.01,2013-03-28 10:13:00,
2013-03-28 06:18:00,29.7,28.2,29.96,WNW,283,7.0,15.0,94,0.00,,---,0.00,VWS V14.01,2013-03-28 10:18:00,
2013-03-28 06:23:00,29.7,28.2,29.96,WNW,298,11.0,13.0,94,0.00,,---,0.00,VWS V14.01,2013-03-28 10:23:00,
2013-03-28 06:28:00,29.7,27.9,29.97,NW,319,10.0,16.0,93,0.00,,---,0.00,VWS V14.01,2013-03-28 10:28:00,
2013-03-28 06:33:00,29.6,27.8,29.97,NW,315,11.0,16.0,93,0.00,,---,0.00,VWS V14.01,2013-03-28 10:33:00,
2013-03-28 06:38:00,29.6,27.8,29.97,NNW,330,12.0,16.0,93,0.00,,---,0.00,VWS V14.01,2013-03-28 10:38:00,
2013-03-28 06:43:00,29.6,27.8,29.97,WNW,287,10.0,15.0,93,0.00,,---,0.00,VWS V14.01,2013-03-28 10:43:00,
2013-03-28 06:48:00,29.6,28.1,29.97,WNW,294,5.0,11.0,94,0.00,,---,0.00,VWS V14.01,2013-03-28 10:48:00,
2013-03-28 06:53:00,29.6,28.1,29.97,WNW,302,8.0,14.0,94,0.00,,---,0.00,VWS V14.01,2013-03-28 10:53:00,
2013-03-28 06:58:00,29.5,28.0,29.98,NW,323,6.0,12.0,94,0.00,,---,0.00,VWS V14.01,2013-03-28 10:58:00,
2013-03-28 07:03:00,29.5,28.0,29.98,West,280,9.0,13.0,94,0.00,,---,0.00,VWS V14.01,2013-03-28 11:03:00,
2013-03-28 07:08:00,29.4,27.9,29.98,WNW,301,9.0,12.0,94,0.00,,---,0.00,VWS V14.01,2013-03-28 11:08:00,
2013-03-28 07:13:00,29.3,27.8,29.98,NW,313,7.0,12.0,94,0.00,,---,0.00,VWS V14.01,2013-03-28 11:13:00,
2013-03-28 07:18:00,29.3,27.8,29.98,WNW,301,6.0,12.0,94,0.00,,---,0.00,VWS V14.01,2013-03-28 11:18:00,
2013-03-28 07:23:00,29.3,28.0,29.98,WNW,289,7.0,12.0,95,0.00,,---,0.00,VWS V14.01,2013-03-28 11:23:00,
2013-03-28 07:28:00,29.3,28.0,29.98,WNW,301,7.0,14.0,95,0.00,,---,0.00,VWS V14.01,2013-03-28 11:28:00,
2013-03-28 07:33:00,29.3,28.0,29.98,WNW,295,7.0,13.0,95,0.00,,---,0.00,VWS V14.01,2013-03-28 11:33:00,
2013-03-28 07:38:00,29.3,28.0,29.99,NW,319,11.0,12.0,95,0.00,,---,0.00,VWS V14.01,2013-03-28 11:38:00,
2013-03-28 07:43:00,29.3,28.0,29.99,WNW,297,11.0,15.0,95,0.00,,---,0.00,VWS V14.01,2013-03-28 11:43:00,
2013-03-28 07:48:00,29.3,27.8,29.99,NW,314,8.0,15.0,94,0.00,,---,0.00,VWS V14.01,2013-03-28 11:48:00,
2013-03-28 07:53:00,29.4,27.9,29.99,NW,310,12.0,13.0,94,0.00,,---,0.00,VWS V14.01,2013-03-28 11:53:00,
2013-03-28 07:58:00,29.4,27.9,29.99,WNW,293,9.0,14.0,94,0.00,,---,0.00,VWS V14.01,2013-03-28 11:58:00,
2013-03-28 08:03:00,29.4,27.9,30.00,WNW,290,7.0,13.0,94,0.00,,---,0.00,VWS V14.01,2013-03-28 12:03:00,
2013-03-28 08:08:00,29.4,27.9,30.00,NW,308,8.0,14.0,94,0.00,,---,0.00,VWS V14.01,2013-03-28 12:08:00,
2013-03-28 08:13:00,29.4,28.1,30.00,NW,315,10.0,13.0,95,0.00,,---,0.00,VWS V14.01,2013-03-28 12:13:00,
2013-03-28 08:18:00,29.4,28.1,30.00,NW,308,8.0,16.0,95,0.00,,---,0.00,VWS V14.01,2013-03-28 12:18:00,
2013-03-28 08:23:00,29.4,27.9,30.00,WNW,297,8.0,14.0,94,0.00,,---,0.00,VWS V14.01,2013-03-28 12:23:00,
2013-03-28 08:28:00,29.5,28.2,30.00,NW,304,8.0,14.0,95,0.00,,---,0.00,VWS V14.01,2013-03-28 12:28:00,
2013-03-28 08:33:00,29.6,28.1,30.00,WNW,300,9.0,15.0,94,0.00,,---,0.00,VWS V14.01,2013-03-28 12:33:00,
2013-03-28 08:38:00,29.6,28.4,30.00,West,278,7.0,14.0,95,0.00,,---,0.00,VWS V14.01,2013-03-28 12:38:00,
2013-03-28 08:43:00,29.6,28.4,30.00,NW,316,9.0,12.0,95,0.00,,---,0.00,VWS V14.01,2013-03-28 12:43:00,
2013-03-28 08:48:00,29.7,28.5,30.00,North,8,5.0,14.0,95,0.00,,---,0.00,VWS V14.01,2013-03-28 12:48:00,
2013-03-28 08:53:00,29.8,28.5,30.00,NW,326,11.0,14.0,95,0.00,,---,0.00,VWS V14.01,2013-03-28 12:53:00,
2013-03-28 08:58:00,30.0,28.7,30.01,West,276,6.0,11.0,95,0.00,,---,0.00,VWS V14.01,2013-03-28 12:58:00,
2013-03-28 09:03:00,30.0,28.5,30.00,WNW,294,8.0,13.0,94,0.00,,---,0.00,VWS V14.01,2013-03-28 13:03:00,
2013-03-28 09:08:00,30.0,28.7,30.00,NW,309,6.0,13.0,95,0.00,,---,0.00,VWS V14.01,2013-03-28 13:08:00,
2013-03-28 09:13:00,30.0,28.5,30.01,WNW,301,6.0,13.0,94,0.00,,---,0.00,VWS V14.01,2013-03-28 13:13:00,
2013-03-28 09:18:00,30.0,28.7,30.01,NW,326,7.0,14.0,95,0.00,,---,0.00,VWS V14.01,2013-03-28 13:18:00,
2013-03-28 09:23:00,30.0,28.7,30.01,WNW,294,7.0,14.0,95,0.00,,---,0.00,VWS V14.01,2013-03-28 13:23:00,
2013-03-28 09:28:00,30.0,28.7,30.01,NW,315,7.0,13.0,95,0.00,,---,0.00,VWS V14.01,2013-03-28 13:28:00,
2013-03-28 09:33:00,30.1,28.8,30.01,NW,315,14.0,15.0,95,0.00,,---,0.00,VWS V14.01,2013-03-28 13:33:00,
2013-03-28 09:38:00,30.2,28.7,30.01,WNW,301,9.0,18.0,94,0.00,,---,0.00,VWS V14.01,2013-03-28 13:38:00,
2013-03-28 09:43:00,30.3,29.0,30.01,WNW,291,12.0,15.0,95,0.00,,---,0.00,VWS V14.01,2013-03-28 13:43:00,
2013-03-28 09:48:00,30.4,29.1,30.01,WNW,295,6.0,15.0,95,0.00,,---,0.00,VWS V14.01,2013-03-28 13:48:00,
2013-03-28 09:53:00,30.4,28.9,30.01,NW,323,8.0,13.0,94,0.00,,---,0.00,VWS V14.01,2013-03-28 13:53:00,
2013-03-28 09:58:00,30.5,29.2,30.01,NW,312,10.0,13.0,95,0.00,,---,0.00,VWS V14.01,2013-03-28 13:58:00,
2013-03-28 10:03:00,30.6,29.1,30.01,NW,319,4.0,13.0,94,0.00,,---,0.00,VWS V14.01,2013-03-28 14:03:00,
2013-03-28 10:08:00,30.8,29.3,30.01,NW,308,6.0,10.0,94,0.00,,---,0.00,VWS V14.01,2013-03-28 14:08:00,
2013-03-28 10:13:00,30.8,29.3,30.01,WNW,294,9.0,14.0,94,0.00,,---,0.00,VWS V14.01,2013-03-28 14:13:00,
2013-03-28 10:18:00,30.8,29.3,30.02,NW,324,8.0,14.0,94,0.00,,---,0.00,VWS V14.01,2013-03-28 14:18:00,
2013-03-28 10:23:00,31.1,29.6,30.02,WNW,291,10.0,15.0,94,0.00,,---,0.00,VWS V14.01,2013-03-28 14:23:00,
2013-03-28 10:28:00,31.2,29.7,30.02,WNW,295,6.0,13.0,94,0.00,,---,0.00,VWS V14.01,2013-03-28 14:28:00,
2013-03-28 10:33:00,31.3,29.8,30.02,WNW,301,8.0,14.0,94,0.00,,---,0.00,VWS V14.01,2013-03-28 14:33:00,
2013-03-28 10:38:00,31.3,29.8,30.02,NW,306,12.0,13.0,94,0.00,,---,0.00,VWS V14.01,2013-03-28 14:38:00,
2013-03-28 10:43:00,31.4,29.9,30.02,WNW,292,8.0,12.0,94,0.00,,---,0.00,VWS V14.01,2013-03-28 14:43:00,
2013-03-28 10:48:00,31.4,29.9,30.02,WNW,288,6.0,11.0,94,0.00,,---,0.00,VWS V14.01,2013-03-28 14:48:00,
2013-03-28 10:53:00,31.3,29.8,30.03,NW,309,8.0,13.0,94,0.00,,---,0.00,VWS V14.01,2013-03-28 14:53:00,
2013-03-28 10:58:00,31.3,30.0,30.03,NW,326,6.0,11.0,95,0.00,,---,0.00,VWS V14.01,2013-03-28 14:58:00,
2013-03-28 11:03:00,31.4,30.1,30.03,NNW,329,6.0,12.0,95,0.00,,---,0.00,VWS V14.01,2013-03-28 15:03:00,
2013-03-28 11:08:00,31.4,29.9,30.03,NW,307,8.0,13.0,94,0.00,,---,0.00,VWS V14.01,2013-03-28 15:08:00,
2013-03-28 11:13:00,31.5,30.0,30.03,NW,318,6.0,11.0,94,0.00,,---,0.00,VWS V14.01,2013-03-28 15:13:00,
2013-03-28 11:18:00,31.8,30.3,30.03,WNW,297,10.0,11.0,94,0.00,,---,0.00,VWS V14.01,2013-03-28 15:18:00,
2013-03-28 14:02:00,35.3,31.5,30.03,WNW,292,7.0,11.0,86,0.00,,---,0.00,VWS V14.01,2013-03-28 18:02:00,
2013-03-28 14:08:00,35.6,31.5,30.03,WNW,291,10.0,13.0,85,0.00,,---,0.00,VWS V14.01,2013-03-28 18:08:00,
2013-03-28 14:13:00,35.5,31.7,30.03,NW,317,6.0,13.0,86,0.00,,---,0.00,VWS V14.01,2013-03-28 18:13:00,
2013-03-28 14:18:00,35.5,31.7,30.03,NW,310,9.0,9.0,86,0.00,,---,0.00,VWS V14.01,2013-03-28 18:18:00,
2013-03-28 14:23:00,35.6,31.8,30.03,WNW,293,6.0,11.0,86,0.00,,---,0.00,VWS V14.01,2013-03-28 18:23:00,
2013-03-28 14:28:00,35.5,31.7,30.03,WNW,297,5.0,12.0,86,0.00,,---,0.00,VWS V14.01,2013-03-28 18:28:00,
2013-03-28 14:33:00,35.5,31.7,30.03,NW,315,6.0,13.0,86,0.00,,---,0.00,VWS V14.01,2013-03-28 18:33:00,
2013-03-28 14:38:00,35.5,31.7,30.03,WNW,300,10.0,11.0,86,0.00,,---,0.00,VWS V14.01,2013-03-28 18:38:00,
2013-03-28 14:43:00,35.7,31.6,30.03,NW,310,9.0,14.0,85,0.00,,---,0.00,VWS V14.01,2013-03-28 18:43:00,
2013-03-28 14:48:00,35.7,31.9,30.03,WNW,301,8.0,15.0,86,0.00,,---,0.00,VWS V14.01,2013-03-28 18:48:00,
2013-03-28 14:53:00,35.4,32.2,30.02,NW,319,4.0,11.0,88,0.00,,---,0.00,VWS V14.01,2013-03-28 18:53:00,
2013-03-28 14:58:00,35.4,31.9,30.02,WNW,290,8.0,9.0,87,0.00,,---,0.00,VWS V14.01,2013-03-28 18:58:00,
2013-03-28 15:03:00,35.6,32.1,30.02,WNW,300,8.0,14.0,87,0.00,,---,0.00,VWS V14.01,2013-03-28 19:03:00,
2013-03-28 15:08:00,35.7,31.9,30.02,NW,308,6.0,11.0,86,0.00,,---,0.00,VWS V14.01,2013-03-28 19:08:00,
2013-03-28 15:13:00,35.7,31.9,30.02,WNW,302,8.0,12.0,86,0.00,,---,0.00,VWS V14.01,2013-03-28 19:13:00,
2013-03-28 16:34:00,38.5,32.2,30.02,WNW,292,11.0,15.0,78,0.00,,---,0.00,VWS V14.01,2013-03-28 20:34:00,
2013-03-28 16:40:00,38.6,32.3,30.02,WNW,298,10.0,20.0,78,0.00,,---,0.00,VWS V14.01,2013-03-28 20:40:00,
2013-03-28 16:45:00,38.7,32.1,30.02,NW,313,9.0,16.0,77,0.00,,---,0.00,VWS V14.01,2013-03-28 20:45:00,
2013-03-28 16:50:00,38.9,32.0,30.02,NW,316,12.0,15.0,76,0.00,,---,0.00,VWS V14.01,2013-03-28 20:50:00,
2013-03-28 16:55:00,38.7,31.8,30.02,WNW,293,12.0,20.0,76,0.00,,---,0.00,VWS V14.01,2013-03-28 20:55:00,
2013-03-28 17:00:00,38.8,31.9,30.02,NW,305,13.0,18.0,76,0.00,,---,0.00,VWS V14.01,2013-03-28 21:00:00,
2013-03-28 17:05:00,38.7,31.8,30.02,WNW,301,11.0,17.0,76,0.00,,---,0.00,VWS V14.01,2013-03-28 21:05:00,
2013-03-28 17:10:00,38.7,31.8,30.02,WNW,300,8.0,19.0,76,0.00,,---,0.00,VWS V14.01,2013-03-28 21:10:00,
2013-03-28 17:15:00,38.8,31.6,30.02,NW,319,8.0,18.0,75,0.00,,---,0.00,VWS V14.01,2013-03-28 21:15:00,
2013-03-28 17:20:00,38.8,31.6,30.03,WNW,294,9.0,17.0,75,0.00,,---,0.00,VWS V14.01,2013-03-28 21:20:00,
2013-03-28 17:25:00,38.7,31.5,30.03,NW,305,8.0,21.0,75,0.00,,---,0.00,VWS V14.01,2013-03-28 21:25:00,
2013-03-28 17:30:00,38.5,31.3,30.03,WSW,256,11.0,16.0,75,0.00,,---,0.00,VWS V14.01,2013-03-28 21:30:00,
2013-03-28 17:35:00,38.5,31.6,30.03,NNW,333,8.0,17.0,76,0.00,,---,0.00,VWS V14.01,2013-03-28 21:35:00,
2013-03-28 17:40:00,38.3,31.1,30.03,WNW,297,10.0,17.0,75,0.00,,---,0.00,VWS V14.01,2013-03-28 21:40:00,
2013-03-28 17:45:00,38.3,31.1,30.03,NW,325,12.0,18.0,75,0.00,,---,0.00,VWS V14.01,2013-03-28 21:45:00,
2013-03-28 17:50:00,38.3,30.8,30.04,NW,307,13.0,17.0,74,0.00,,---,0.00,VWS V14.01,2013-03-28 21:50:00,
2013-03-28 17:55:00,38.3,30.8,30.04,WNW,292,11.0,17.0,74,0.00,,---,0.00,VWS V14.01,2013-03-28 21:55:00,
2013-03-28 18:00:00,38.3,30.8,30.04,WNW,300,8.0,18.0,74,0.00,,---,0.00,VWS V14.01,2013-03-28 22:00:00,
2013-03-28 18:06:00,38.3,30.8,30.04,WNW,300,8.0,18.0,74,0.00,,---,0.00,VWS V14.01,2013-03-28 22:06:00,
2013-03-28 18:11:00,38.2,30.7,30.04,WNW,295,6.0,17.0,74,0.00,,---,0.00,VWS V14.01,2013-03-28 22:11:00,
2013-03-28 18:16:00,38.1,30.9,30.04,NW,315,12.0,15.0,75,0.00,,---,0.00,VWS V14.01,2013-03-28 22:16:00,
2013-03-28 18:21:00,38.1,30.6,30.04,NW,305,9.0,17.0,74,0.00,,---,0.00,VWS V14.01,2013-03-28 22:21:00,
2013-03-28 18:26:00,38.1,30.6,30.05,NW,309,9.0,16.0,74,0.00,,---,0.00,VWS V14.01,2013-03-28 22:26:00,
2013-03-28 18:31:00,38.1,30.6,30.05,NW,307,7.0,18.0,74,0.00,,---,0.00,VWS V14.01,2013-03-28 22:31:00,
2013-03-28 18:36:00,38.0,30.5,30.05,WNW,293,9.0,16.0,74,0.00,,---,0.00,VWS V14.01,2013-03-28 22:36:00,
2013-03-28 18:42:00,38.0,30.5,30.05,WNW,301,12.0,16.0,74,0.00,,---,0.00,VWS V14.01,2013-03-28 22:42:00,
2013-03-28 18:47:00,37.9,30.4,30.05,WNW,302,14.0,15.0,74,0.00,,---,0.00,VWS V14.01,2013-03-28 22:47:00,
2013-03-28 18:52:00,37.8,30.3,30.05,WNW,285,6.0,15.0,74,0.00,,---,0.00,VWS V14.01,2013-03-28 22:52:00,
2013-03-28 18:57:00,37.7,30.5,30.06,WNW,302,12.0,13.0,75,0.00,,---,0.00,VWS V14.01,2013-03-28 22:57:00,
2013-03-28 19:03:00,37.6,30.4,30.06,WNW,295,10.0,14.0,75,0.00,,---,0.00,VWS V14.01,2013-03-28 23:03:00,
2013-03-28 19:08:00,37.6,30.1,30.06,WNW,295,11.0,18.0,74,0.00,,---,0.00,VWS V14.01,2013-03-28 23:08:00,
2013-03-28 19:13:00,37.4,30.2,30.06,WNW,301,9.0,17.0,75,0.00,,---,0.00,VWS V14.01,2013-03-28 23:13:00,
2013-03-28 19:18:00,37.4,29.9,30.06,WNW,295,14.0,19.0,74,0.00,,---,0.00,VWS V14.01,2013-03-28 23:18:00,
2013-03-28 19:23:00,37.3,30.1,30.07,WNW,291,12.0,18.0,75,0.00,,---,0.00,VWS V14.01,2013-03-28 23:23:00,
2013-03-28 19:28:00,37.2,30.0,30.07,NW,305,9.0,17.0,75,0.00,,---,0.00,VWS V14.01,2013-03-28 23:28:00,
2013-03-28 19:33:00,37.1,29.9,30.07,WNW,302,10.0,20.0,75,0.00,,---,0.00,VWS V14.01,2013-03-28 23:33:00,
2013-03-28 19:38:00,37.0,30.1,30.07,WNW,302,9.0,18.0,76,0.00,,---,0.00,VWS V14.01,2013-03-28 23:38:00,
2013-03-28 19:43:00,36.9,30.0,30.07,WNW,290,10.0,15.0,76,0.00,,---,0.00,VWS V14.01,2013-03-28 23:43:00,
2013-03-28 19:48:00,36.9,30.0,30.07,WNW,301,9.0,14.0,76,0.00,,---,0.00,VWS V14.01,2013-03-28 23:48:00,
2013-03-28 19:53:00,36.8,30.0,30.07,NNW,328,10.0,21.0,76,0.00,,---,0.00,VWS V14.01,2013-03-28 23:53:00,
2013-03-28 19:58:00,36.7,30.2,30.08,WNW,292,10.0,17.0,77,0.00,,---,0.00,VWS V14.01,2013-03-28 23:58:00,
2013-03-28 20:03:00,36.6,30.1,30.08,NW,318,13.0,25.0,77,0.00,,---,0.00,VWS V14.01,2013-03-29 00:03:00,
2013-03-28 20:08:00,36.5,30.0,30.08,WNW,290,9.0,19.0,77,0.00,,---,0.00,VWS V14.01,2013-03-29 00:08:00,
2013-03-28 20:13:00,36.4,30.2,30.08,NNW,335,12.0,18.0,78,0.00,,---,0.00,VWS V14.01,2013-03-29 00:13:00,
2013-03-28 20:18:00,36.3,30.1,30.08,WNW,293,12.0,21.0,78,0.00,,---,0.00,VWS V14.01,2013-03-29 00:18:00,
2013-03-28 20:23:00,36.3,30.4,30.08,WNW,302,14.0,21.0,79,0.00,,---,0.00,VWS V14.01,2013-03-29 00:23:00,
2013-03-28 20:28:00,36.2,30.3,30.08,NW,308,9.0,17.0,79,0.00,,---,0.00,VWS V14.01,2013-03-29 00:28:00,
2013-03-28 20:33:00,36.1,30.2,30.09,NW,307,12.0,19.0,79,0.00,,---,0.00,VWS V14.01,2013-03-29 00:33:00,
2013-03-28 20:38:00,36.1,30.5,30.09,West,274,13.0,18.0,80,0.00,,---,0.00,VWS V14.01,2013-03-29 00:38:00,
2013-03-28 20:43:00,36.0,30.4,30.09,WNW,293,11.0,20.0,80,0.00,,---,0.00,VWS V14.01,2013-03-29 00:43:00,
2013-03-28 20:48:00,35.9,30.3,30.09,WNW,302,11.0,17.0,80,0.00,,---,0.00,VWS V14.01,2013-03-29 00:48:00,
2013-03-28 20:53:00,35.9,30.3,30.09,WNW,300,11.0,20.0,80,0.00,,---,0.00,VWS V14.01,2013-03-29 00:53:00,
2013-03-28 20:58:00,35.8,30.2,30.10,WNW,288,12.0,26.0,80,0.00,,---,0.00,VWS V14.01,2013-03-29 00:58:00,
2013-03-28 21:03:00,35.7,30.5,30.10,WNW,295,12.0,15.0,81,0.00,,---,0.00,VWS V14.01,2013-03-29 01:03:00,
2013-03-28 21:08:00,35.6,30.4,30.10,WNW,285,15.0,17.0,81,0.00,,---,0.00,VWS V14.01,2013-03-29 01:08:00,
2013-03-28 21:13:00,35.6,30.4,30.10,NW,305,10.0,16.0,81,0.00,,---,0.00,VWS V14.01,2013-03-29 01:13:00,
2013-03-28 21:18:00,35.6,30.4,30.10,WNW,291,13.0,17.0,81,0.00,,---,0.00,VWS V14.01,2013-03-29 01:18:00,
2013-03-28 21:23:00,35.6,30.4,30.10,NW,314,11.0,19.0,81,0.00,,---,0.00,VWS V14.01,2013-03-29 01:23:00,
2013-03-28 21:28:00,35.6,30.4,30.11,NW,306,12.0,21.0,81,0.00,,---,0.00,VWS V14.01,2013-03-29 01:28:00,
2013-03-28 21:33:00,35.5,30.0,30.11,WNW,294,15.0,18.0,80,0.00,,---,0.00,VWS V14.01,2013-03-29 01:33:00,
2013-03-28 21:38:00,35.5,30.0,30.11,WNW,297,7.0,19.0,80,0.00,,---,0.00,VWS V14.01,2013-03-29 01:38:00,
2013-03-28 21:43:00,35.4,29.9,30.11,NW,309,7.0,19.0,80,0.00,,---,0.00,VWS V14.01,2013-03-29 01:43:00,
2013-03-28 21:48:00,35.3,29.8,30.11,WNW,295,11.0,16.0,80,0.00,,---,0.00,VWS V14.01,2013-03-29 01:48:00,
2013-03-28 21:53:00,35.2,30.0,30.11,NW,323,14.0,19.0,81,0.00,,---,0.00,VWS V14.01,2013-03-29 01:53:00,
2013-03-28 21:58:00,35.2,30.0,30.11,WNW,283,10.0,15.0,81,0.00,,---,0.00,VWS V14.01,2013-03-29 01:58:00,
2013-03-28 22:03:00,35.1,29.9,30.11,NW,305,13.0,17.0,81,0.00,,---,0.00,VWS V14.01,2013-03-29 02:03:00,
2013-03-28 22:08:00,35.1,29.9,30.11,NW,319,12.0,20.0,81,0.00,,---,0.00,VWS V14.01,2013-03-29 02:08:00,
2013-03-28 22:13:00,35.0,29.8,30.11,NW,324,12.0,19.0,81,0.00,,---,0.00,VWS V14.01,2013-03-29 02:13:00,
2013-03-28 22:18:00,35.0,29.5,30.11,NW,308,5.0,16.0,80,0.00,,---,0.00,VWS V14.01,2013-03-29 02:18:00,
2013-03-28 22:23:00,34.9,29.4,30.11,NW,319,12.0,16.0,80,0.00,,---,0.00,VWS V14.01,2013-03-29 02:23:00,
2013-03-28 22:28:00,34.9,29.4,30.11,NW,313,10.0,17.0,80,0.00,,---,0.00,VWS V14.01,2013-03-29 02:28:00,
2013-03-28 22:34:00,34.8,29.3,30.11,WNW,298,21.0,21.0,80,0.00,,---,0.00,VWS V14.01,2013-03-29 02:34:00,
2013-03-28 22:39:00,34.9,29.4,30.11,NW,308,9.0,23.0,80,0.00,,---,0.00,VWS V14.01,2013-03-29 02:39:00,
2013-03-28 22:44:00,34.8,29.3,30.11,WNW,297,9.0,16.0,80,0.00,,---,0.00,VWS V14.01,2013-03-29 02:44:00,
2013-03-28 22:49:00,34.8,29.3,30.11,NW,317,9.0,19.0,80,0.00,,---,0.00,VWS V14.01,2013-03-29 02:49:00,
2013-03-28 22:54:00,34.6,29.4,30.11,WNW,301,14.0,15.0,81,0.00,,---,0.00,VWS V14.01,2013-03-29 02:54:00,
2013-03-28 22:59:00,34.6,29.4,30.12,NW,310,12.0,20.0,81,0.00,,---,0.00,VWS V14.01,2013-03-29 02:59:00,
2013-03-28 23:04:00,34.6,29.4,30.12,NW,305,8.0,22.0,81,0.00,,---,0.00,VWS V14.01,2013-03-29 03:04:00,
2013-03-28 23:09:00,34.5,29.6,30.12,NW,316,8.0,15.0,82,0.00,,---,0.00,VWS V14.01,2013-03-29 03:09:00,
2013-03-28 23:14:00,34.4,29.5,30.12,WNW,295,11.0,14.0,82,0.00,,---,0.00,VWS V14.01,2013-03-29 03:14:00,
2013-03-28 23:19:00,34.3,29.4,30.12,WNW,293,11.0,17.0,82,0.00,,---,0.00,VWS V14.01,2013-03-29 03:19:00,
2013-03-28 23:24:00,34.4,29.5,30.12,WNW,294,10.0,23.0,82,0.00,,---,0.00,VWS V14.01,2013-03-29 03:24:00,
2013-03-28 23:29:00,34.3,29.4,30.12,NW,305,11.0,15.0,82,0.00,,---,0.00,VWS V14.01,2013-03-29 03:29:00,
2013-03-28 23:34:00,34.1,29.5,30.12,NW,306,10.0,13.0,83,0.00,,---,0.00,VWS V14.01,2013-03-29 03:34:00,
2013-03-28 23:40:00,34.1,29.2,30.12,WNW,301,10.0,14.0,82,0.00,,---,0.00,VWS V14.01,2013-03-29 03:40:00,
2013-03-28 23:45:00,34.1,29.2,30.12,NW,311,7.0,15.0,82,0.00,,---,0.00,VWS V14.01,2013-03-29 03:45:00,
2013-03-28 23:50:00,34.2,29.3,30.12,WNW,292,9.0,15.0,82,0.00,,---,0.00,VWS V14.01,2013-03-29 03:50:00,
2013-03-28 23:55:00,34.3,29.4,30.12,WNW,301,8.0,17.0,82,0.00,,---,0.00,VWS V14.01,2013-03-29 03:55:00,